sensor_id;sensor_type;location;lat;lon;timestamp;P1;durP1;ratioP1;P2;durP2;ratioP2
53674;SDS011;39574;50.534;8.500;2023-12-22T00:01:38;4.9;;;1.7;;
53674;SDS011;39574;50.534;8.500;2023-12-22T00:06:39;5.1;;;1.7;;
53674;SDS011;39574;50.534;8.500;2023-12-22T00:11:36;5.8;;;1.8;;
53674;SDS011;39574;50.534;8.500;2023-12-22T00:16:36;6.8;;;1.9;;
53674;SDS011;39574;50.534;8.500;2023-12-22T00:21:34;6.9;;;1.9;;
53674;SDS011;39574;50.534;8.500;2023-12-22T00:26:33;6.8;;;1.9;;
53674;SDS011;39574;50.534;8.500;2023-12-22T00:31:35;7.7;;;1.9;;
53674;SDS011;39574;50.534;8.500;2023-12-22T00:36:31;6.8;;;1.8;;
53674;SDS011;39574;50.534;8.500;2023-12-22T00:41:29;6.4;;;1.8;;
53674;SDS011;39574;50.534;8.500;2023-12-22T00:46:29;6.6;;;1.8;;
53674;SDS011;39574;50.534;8.500;2023-12-22T00:56:26;6.7;;;1.7;;
53674;SDS011;39574;50.534;8.500;2023-12-22T01:01:25;6.5;;;1.8;;
53674;SDS011;39574;50.534;8.500;2023-12-22T01:06:23;6.4;;;1.8;;
53674;SDS011;39574;50.534;8.500;2023-12-22T01:11:22;6.0;;;1.7;;
53674;SDS011;39574;50.534;8.500;2023-12-22T01:16:21;5.6;;;1.6;;
53674;SDS011;39574;50.534;8.500;2023-12-22T01:21:20;6.3;;;1.6;;
53674;SDS011;39574;50.534;8.500;2023-12-22T01:26:19;6.7;;;1.6;;
53674;SDS011;39574;50.534;8.500;2023-12-22T01:31:17;6.8;;;1.6;;
53674;SDS011;39574;50.534;8.500;2023-12-22T01:36:16;6.7;;;1.6;;
53674;SDS011;39574;50.534;8.500;2023-12-22T01:41:15;6.7;;;1.6;;
53674;SDS011;39574;50.534;8.500;2023-12-22T01:46:14;5.9;;;1.6;;
53674;SDS011;39574;50.534;8.500;2023-12-22T01:51:12;5.1;;;1.6;;
53674;SDS011;39574;50.534;8.500;2023-12-22T01:56:11;5.2;;;1.7;;
53674;SDS011;39574;50.534;8.500;2023-12-22T02:01:11;5.3;;;1.8;;
53674;SDS011;39574;50.534;8.500;2023-12-22T02:11:08;6.8;;;1.7;;
53674;SDS011;39574;50.534;8.500;2023-12-22T02:16:08;7.1;;;1.8;;
53674;SDS011;39574;50.534;8.500;2023-12-22T02:21:10;7.0;;;1.8;;
53674;SDS011;39574;50.534;8.500;2023-12-22T02:26:06;6.5;;;1.7;;
53674;SDS011;39574;50.534;8.500;2023-12-22T02:36:02;6.4;;;1.5;;
53674;SDS011;39574;50.534;8.500;2023-12-22T02:41:01;6.2;;;1.6;;
53674;SDS011;39574;50.534;8.500;2023-12-22T02:46:00;5.4;;;1.5;;
53674;SDS011;39574;50.534;8.500;2023-12-22T02:50:57;4.9;;;1.5;;
53674;SDS011;39574;50.534;8.500;2023-12-22T02:55:57;4.6;;;1.4;;
53674;SDS011;39574;50.534;8.500;2023-12-22T03:01:00;4.3;;;1.3;;
53674;SDS011;39574;50.534;8.500;2023-12-22T03:05:55;4.2;;;1.3;;
53674;SDS011;39574;50.534;8.500;2023-12-22T03:10:54;4.6;;;1.4;;
53674;SDS011;39574;50.534;8.500;2023-12-22T03:15:51;4.2;;;1.3;;
53674;SDS011;39574;50.534;8.500;2023-12-22T03:20:50;3.7;;;1.3;;
53674;SDS011;39574;50.534;8.500;2023-12-22T03:25:49;3.9;;;1.2;;
53674;SDS011;39574;50.534;8.500;2023-12-22T03:30:48;4.1;;;1.2;;
53674;SDS011;39574;50.534;8.500;2023-12-22T03:35:47;4.7;;;1.2;;
53674;SDS011;39574;50.534;8.500;2023-12-22T03:40:47;4.2;;;1.2;;
53674;SDS011;39574;50.534;8.500;2023-12-22T03:45:44;3.8;;;1.1;;
53674;SDS011;39574;50.534;8.500;2023-12-22T03:50:43;3.4;;;1.1;;
53674;SDS011;39574;50.534;8.500;2023-12-22T03:55:42;3.1;;;1.1;;
53674;SDS011;39574;50.534;8.500;2023-12-22T04:00:41;3.1;;;1.0;;
53674;SDS011;39574;50.534;8.500;2023-12-22T04:05:40;3.1;;;1.1;;
53674;SDS011;39574;50.534;8.500;2023-12-22T04:10:38;3.3;;;1.1;;
53674;SDS011;39574;50.534;8.500;2023-12-22T04:15:37;3.5;;;1.1;;
53674;SDS011;39574;50.534;8.500;2023-12-22T04:20:36;3.7;;;1.2;;
53674;SDS011;39574;50.534;8.500;2023-12-22T04:25:35;3.6;;;1.1;;
53674;SDS011;39574;50.534;8.500;2023-12-22T04:30:38;3.4;;;1.1;;
53674;SDS011;39574;50.534;8.500;2023-12-22T04:35:32;3.3;;;1.1;;
53674;SDS011;39574;50.534;8.500;2023-12-22T04:40:34;3.1;;;1.1;;
53674;SDS011;39574;50.534;8.500;2023-12-22T04:45:29;3.2;;;1.1;;
53674;SDS011;39574;50.534;8.500;2023-12-22T04:50:28;3.6;;;1.4;;
53674;SDS011;39574;50.534;8.500;2023-12-22T04:55:26;3.5;;;1.4;;
53674;SDS011;39574;50.534;8.500;2023-12-22T05:00:25;3.9;;;1.4;;
53674;SDS011;39574;50.534;8.500;2023-12-22T05:05:25;4.3;;;1.3;;
53674;SDS011;39574;50.534;8.500;2023-12-22T05:15:22;5.8;;;1.5;;
53674;SDS011;39574;50.534;8.500;2023-12-22T05:20:21;6.6;;;1.9;;
53674;SDS011;39574;50.534;8.500;2023-12-22T05:25:20;7.8;;;2.1;;
53674;SDS011;39574;50.534;8.500;2023-12-22T05:30:19;10.4;;;3.0;;
53674;SDS011;39574;50.534;8.500;2023-12-22T05:35:17;11.9;;;3.7;;
53674;SDS011;39574;50.534;8.500;2023-12-22T05:40:16;12.7;;;4.0;;
53674;SDS011;39574;50.534;8.500;2023-12-22T05:45:15;11.5;;;4.0;;
53674;SDS011;39574;50.534;8.500;2023-12-22T05:50:14;10.0;;;3.5;;
53674;SDS011;39574;50.534;8.500;2023-12-22T05:55:13;8.5;;;2.9;;
53674;SDS011;39574;50.534;8.500;2023-12-22T06:00:12;7.6;;;2.4;;
53674;SDS011;39574;50.534;8.500;2023-12-22T06:05:11;6.2;;;2.0;;
53674;SDS011;39574;50.534;8.500;2023-12-22T06:10:09;5.7;;;1.8;;
53674;SDS011;39574;50.534;8.500;2023-12-22T06:15:08;5.5;;;1.9;;
53674;SDS011;39574;50.534;8.500;2023-12-22T06:20:07;5.4;;;2.0;;
53674;SDS011;39574;50.534;8.500;2023-12-22T06:25:06;6.2;;;2.3;;
53674;SDS011;39574;50.534;8.500;2023-12-22T06:30:04;7.5;;;2.6;;
53674;SDS011;39574;50.534;8.500;2023-12-22T06:35:07;9.5;;;3.0;;
53674;SDS011;39574;50.534;8.500;2023-12-22T06:40:02;11.7;;;3.3;;
53674;SDS011;39574;50.534;8.500;2023-12-22T06:45:00;11.2;;;3.2;;
53674;SDS011;39574;50.534;8.500;2023-12-22T06:49:59;12.8;;;3.5;;
53674;SDS011;39574;50.534;8.500;2023-12-22T06:54:58;13.5;;;3.5;;
53674;SDS011;39574;50.534;8.500;2023-12-22T06:59:57;15.2;;;4.1;;
53674;SDS011;39574;50.534;8.500;2023-12-22T07:04:59;14.1;;;4.1;;
53674;SDS011;39574;50.534;8.500;2023-12-22T07:14:54;11.2;;;3.5;;
53674;SDS011;39574;50.534;8.500;2023-12-22T07:19:53;10.7;;;4.0;;
53674;SDS011;39574;50.534;8.500;2023-12-22T07:24:53;9.2;;;3.8;;
53674;SDS011;39574;50.534;8.500;2023-12-22T07:29:50;9.1;;;3.3;;
53674;SDS011;39574;50.534;8.500;2023-12-22T07:39:48;8.6;;;3.2;;
53674;SDS011;39574;50.534;8.500;2023-12-22T07:49:45;8.9;;;3.3;;
53674;SDS011;39574;50.534;8.500;2023-12-22T07:54:43;8.9;;;3.3;;
53674;SDS011;39574;50.534;8.500;2023-12-22T07:59:43;9.4;;;3.4;;
53674;SDS011;39574;50.534;8.500;2023-12-22T08:04:41;12.3;;;3.6;;
53674;SDS011;39574;50.534;8.500;2023-12-22T08:09:40;13.1;;;3.5;;
53674;SDS011;39574;50.534;8.500;2023-12-22T08:14:39;13.8;;;3.6;;
53674;SDS011;39574;50.534;8.500;2023-12-22T08:19:38;14.2;;;3.8;;
53674;SDS011;39574;50.534;8.500;2023-12-22T08:24:37;12.8;;;3.7;;
53674;SDS011;39574;50.534;8.500;2023-12-22T08:29:36;12.0;;;3.8;;
53674;SDS011;39574;50.534;8.500;2023-12-22T08:34:34;14.0;;;3.9;;
53674;SDS011;39574;50.534;8.500;2023-12-22T08:39:34;11.9;;;3.5;;
53674;SDS011;39574;50.534;8.500;2023-12-22T08:44:32;10.6;;;3.1;;
53674;SDS011;39574;50.534;8.500;2023-12-22T08:49:31;9.3;;;2.6;;
53674;SDS011;39574;50.534;8.500;2023-12-22T08:54:30;8.8;;;2.4;;
53674;SDS011;39574;50.534;8.500;2023-12-22T08:59:29;8.4;;;2.5;;
53674;SDS011;39574;50.534;8.500;2023-12-22T09:04:27;7.4;;;2.4;;
53674;SDS011;39574;50.534;8.500;2023-12-22T09:14:25;8.7;;;2.3;;
53674;SDS011;39574;50.534;8.500;2023-12-22T09:19:24;8.2;;;2.4;;
53674;SDS011;39574;50.534;8.500;2023-12-22T09:24:23;8.2;;;2.4;;
53674;SDS011;39574;50.534;8.500;2023-12-22T09:29:22;7.7;;;2.5;;
53674;SDS011;39574;50.534;8.500;2023-12-22T09:34:21;7.4;;;2.5;;
53674;SDS011;39574;50.534;8.500;2023-12-22T09:39:19;7.4;;;2.5;;
53674;SDS011;39574;50.534;8.500;2023-12-22T09:44:19;7.1;;;2.5;;
53674;SDS011;39574;50.534;8.500;2023-12-22T09:49:21;8.1;;;3.1;;
53674;SDS011;39574;50.534;8.500;2023-12-22T09:54:17;9.3;;;3.6;;
53674;SDS011;39574;50.534;8.500;2023-12-22T10:04:14;9.8;;;3.7;;
53674;SDS011;39574;50.534;8.500;2023-12-22T10:09:13;9.9;;;3.5;;
53674;SDS011;39574;50.534;8.500;2023-12-22T10:14:12;9.8;;;3.2;;
53674;SDS011;39574;50.534;8.500;2023-12-22T10:19:15;11.5;;;3.3;;
53674;SDS011;39574;50.534;8.500;2023-12-22T10:24:34;12.8;;;3.6;;
53674;SDS011;39574;50.534;8.500;2023-12-22T10:29:13;13.9;;;3.7;;
53674;SDS011;39574;50.534;8.500;2023-12-22T10:34:07;13.9;;;3.7;;
53674;SDS011;39574;50.534;8.500;2023-12-22T10:39:11;16.0;;;4.1;;
53674;SDS011;39574;50.534;8.500;2023-12-22T10:44:10;14.5;;;4.2;;
53674;SDS011;39574;50.534;8.500;2023-12-22T10:49:08;14.6;;;4.3;;
53674;SDS011;39574;50.534;8.500;2023-12-22T10:54:04;14.7;;;4.2;;
53674;SDS011;39574;50.534;8.500;2023-12-22T10:59:02;15.8;;;4.2;;
53674;SDS011;39574;50.534;8.500;2023-12-22T11:04:01;15.2;;;4.1;;
53674;SDS011;39574;50.534;8.500;2023-12-22T11:09:00;15.0;;;4.4;;
53674;SDS011;39574;50.534;8.500;2023-12-22T11:14:03;16.0;;;4.5;;
53674;SDS011;39574;50.534;8.500;2023-12-22T11:18:58;15.0;;;4.3;;
53674;SDS011;39574;50.534;8.500;2023-12-22T11:23:56;15.4;;;4.7;;
53674;SDS011;39574;50.534;8.500;2023-12-22T11:28:55;15.7;;;4.5;;
53674;SDS011;39574;50.534;8.500;2023-12-22T11:33:55;15.5;;;4.3;;
53674;SDS011;39574;50.534;8.500;2023-12-22T11:38:54;13.3;;;3.9;;
53674;SDS011;39574;50.534;8.500;2023-12-22T11:43:53;11.9;;;3.4;;
53674;SDS011;39574;50.534;8.500;2023-12-22T11:48:52;10.5;;;3.2;;
53674;SDS011;39574;50.534;8.500;2023-12-22T11:53:50;9.3;;;3.0;;
53674;SDS011;39574;50.534;8.500;2023-12-22T11:58:51;8.7;;;2.7;;
53674;SDS011;39574;50.534;8.500;2023-12-22T12:03:49;8.4;;;2.7;;
53674;SDS011;39574;50.534;8.500;2023-12-22T12:13:46;8.1;;;2.6;;
53674;SDS011;39574;50.534;8.500;2023-12-22T12:18:45;7.8;;;2.5;;
53674;SDS011;39574;50.534;8.500;2023-12-22T12:23:44;7.0;;;2.3;;
53674;SDS011;39574;50.534;8.500;2023-12-22T12:33:42;7.0;;;2.3;;
53674;SDS011;39574;50.534;8.500;2023-12-22T12:38:42;6.6;;;2.5;;
53674;SDS011;39574;50.534;8.500;2023-12-22T12:43:40;6.4;;;2.9;;
53674;SDS011;39574;50.534;8.500;2023-12-22T12:48:38;8.0;;;3.9;;
53674;SDS011;39574;50.534;8.500;2023-12-22T12:53:37;7.0;;;3.5;;
53674;SDS011;39574;50.534;8.500;2023-12-22T12:58:37;6.2;;;2.9;;
53674;SDS011;39574;50.534;8.500;2023-12-22T13:03:51;5.8;;;2.4;;
53674;SDS011;39574;50.534;8.500;2023-12-22T13:08:35;4.8;;;2.2;;
53674;SDS011;39574;50.534;8.500;2023-12-22T13:13:40;5.3;;;2.4;;
53674;SDS011;39574;50.534;8.500;2023-12-22T13:18:32;5.5;;;2.4;;
53674;SDS011;39574;50.534;8.500;2023-12-22T13:23:31;5.4;;;2.4;;
53674;SDS011;39574;50.534;8.500;2023-12-22T13:28:30;5.1;;;2.4;;
53674;SDS011;39574;50.534;8.500;2023-12-22T13:33:33;4.8;;;2.3;;
53674;SDS011;39574;50.534;8.500;2023-12-22T13:38:28;4.8;;;2.2;;
53674;SDS011;39574;50.534;8.500;2023-12-22T13:48:26;5.3;;;2.3;;
53674;SDS011;39574;50.534;8.500;2023-12-22T13:53:25;5.3;;;2.2;;
53674;SDS011;39574;50.534;8.500;2023-12-22T13:58:24;6.3;;;2.4;;
53674;SDS011;39574;50.534;8.500;2023-12-22T14:03:23;6.4;;;2.4;;
53674;SDS011;39574;50.534;8.500;2023-12-22T14:13:20;6.3;;;2.3;;
53674;SDS011;39574;50.534;8.500;2023-12-22T14:18:20;6.3;;;2.2;;
53674;SDS011;39574;50.534;8.500;2023-12-22T14:23:19;5.3;;;2.0;;
53674;SDS011;39574;50.534;8.500;2023-12-22T14:33:17;5.3;;;2.1;;
53674;SDS011;39574;50.534;8.500;2023-12-22T14:38:16;5.2;;;2.2;;
53674;SDS011;39574;50.534;8.500;2023-12-22T14:48:14;6.5;;;2.6;;
53674;SDS011;39574;50.534;8.500;2023-12-22T14:53:12;7.7;;;3.2;;
53674;SDS011;39574;50.534;8.500;2023-12-22T14:58:12;8.2;;;3.7;;
53674;SDS011;39574;50.534;8.500;2023-12-22T15:03:11;9.0;;;3.6;;
53674;SDS011;39574;50.534;8.500;2023-12-22T15:08:10;8.8;;;3.6;;
53674;SDS011;39574;50.534;8.500;2023-12-22T15:13:09;8.2;;;3.3;;
53674;SDS011;39574;50.534;8.500;2023-12-22T15:18:08;8.0;;;3.6;;
53674;SDS011;39574;50.534;8.500;2023-12-22T15:23:06;8.1;;;3.4;;
53674;SDS011;39574;50.534;8.500;2023-12-22T15:28:06;7.5;;;3.3;;
53674;SDS011;39574;50.534;8.500;2023-12-22T15:33:04;8.3;;;3.3;;
53674;SDS011;39574;50.534;8.500;2023-12-22T15:38:03;8.6;;;3.4;;
53674;SDS011;39574;50.534;8.500;2023-12-22T15:43:03;8.6;;;3.8;;
53674;SDS011;39574;50.534;8.500;2023-12-22T15:48:01;7.9;;;3.4;;
53674;SDS011;39574;50.534;8.500;2023-12-22T15:53:00;8.5;;;3.8;;
53674;SDS011;39574;50.534;8.500;2023-12-22T15:57:59;9.9;;;4.5;;
53674;SDS011;39574;50.534;8.500;2023-12-22T16:02:58;10.6;;;4.7;;
53674;SDS011;39574;50.534;8.500;2023-12-22T16:07:57;9.3;;;4.3;;
53674;SDS011;39574;50.534;8.500;2023-12-22T16:12:55;7.6;;;3.4;;
53674;SDS011;39574;50.534;8.500;2023-12-22T16:22:54;6.7;;;2.8;;
53674;SDS011;39574;50.534;8.500;2023-12-22T16:27:57;6.7;;;2.8;;
53674;SDS011;39574;50.534;8.500;2023-12-22T16:32:51;6.8;;;2.8;;
53674;SDS011;39574;50.534;8.500;2023-12-22T16:37:54;6.2;;;2.6;;
53674;SDS011;39574;50.534;8.500;2023-12-22T16:42:50;5.8;;;2.4;;
53674;SDS011;39574;50.534;8.500;2023-12-22T16:47:48;5.7;;;2.3;;
53674;SDS011;39574;50.534;8.500;2023-12-22T16:52:48;5.6;;;2.2;;
53674;SDS011;39574;50.534;8.500;2023-12-22T16:57:46;4.9;;;2.0;;
53674;SDS011;39574;50.534;8.500;2023-12-22T17:02:45;4.8;;;2.1;;
53674;SDS011;39574;50.534;8.500;2023-12-22T17:07:45;4.5;;;2.0;;
53674;SDS011;39574;50.534;8.500;2023-12-22T17:12:44;4.2;;;1.8;;
53674;SDS011;39574;50.534;8.500;2023-12-22T17:17:43;4.3;;;1.7;;
53674;SDS011;39574;50.534;8.500;2023-12-22T17:22:43;4.7;;;2.1;;
53674;SDS011;39574;50.534;8.500;2023-12-22T17:27:41;5.9;;;2.5;;
53674;SDS011;39574;50.534;8.500;2023-12-22T17:32:39;6.5;;;2.7;;
53674;SDS011;39574;50.534;8.500;2023-12-22T17:37:38;6.0;;;2.4;;
53674;SDS011;39574;50.534;8.500;2023-12-22T17:42:39;5.8;;;2.3;;
53674;SDS011;39574;50.534;8.500;2023-12-22T17:47:36;5.7;;;2.1;;
53674;SDS011;39574;50.534;8.500;2023-12-22T17:52:35;6.2;;;2.3;;
53674;SDS011;39574;50.534;8.500;2023-12-22T17:57:38;5.7;;;2.4;;
53674;SDS011;39574;50.534;8.500;2023-12-22T18:02:33;6.0;;;2.5;;
53674;SDS011;39574;50.534;8.500;2023-12-22T18:07:32;6.2;;;2.8;;
53674;SDS011;39574;50.534;8.500;2023-12-22T18:12:31;6.0;;;2.5;;
53674;SDS011;39574;50.534;8.500;2023-12-22T18:17:30;6.8;;;2.6;;
53674;SDS011;39574;50.534;8.500;2023-12-22T18:22:29;7.1;;;2.8;;
53674;SDS011;39574;50.534;8.500;2023-12-22T18:27:28;8.7;;;3.0;;
53674;SDS011;39574;50.534;8.500;2023-12-22T18:32:27;9.6;;;3.3;;
53674;SDS011;39574;50.534;8.500;2023-12-22T18:37:30;9.1;;;3.3;;
53674;SDS011;39574;50.534;8.500;2023-12-22T18:42:25;9.1;;;3.0;;
53674;SDS011;39574;50.534;8.500;2023-12-22T18:47:24;9.6;;;2.9;;
53674;SDS011;39574;50.534;8.500;2023-12-22T18:52:22;8.6;;;2.8;;
53674;SDS011;39574;50.534;8.500;2023-12-22T18:57:22;7.8;;;2.6;;
53674;SDS011;39574;50.534;8.500;2023-12-22T19:02:21;7.0;;;2.5;;
53674;SDS011;39574;50.534;8.500;2023-12-22T19:07:19;6.7;;;2.5;;
53674;SDS011;39574;50.534;8.500;2023-12-22T19:12:18;6.6;;;2.5;;
53674;SDS011;39574;50.534;8.500;2023-12-22T19:17:17;6.9;;;2.8;;
53674;SDS011;39574;50.534;8.500;2023-12-22T19:22:16;6.4;;;2.8;;
53674;SDS011;39574;50.534;8.500;2023-12-22T19:27:15;7.3;;;3.0;;
53674;SDS011;39574;50.534;8.500;2023-12-22T19:32:14;7.5;;;3.0;;
53674;SDS011;39574;50.534;8.500;2023-12-22T19:37:13;7.0;;;2.8;;
53674;SDS011;39574;50.534;8.500;2023-12-22T19:47:11;7.7;;;2.8;;
53674;SDS011;39574;50.534;8.500;2023-12-22T19:52:10;7.4;;;2.8;;
53674;SDS011;39574;50.534;8.500;2023-12-22T19:57:09;7.5;;;2.8;;
53674;SDS011;39574;50.534;8.500;2023-12-22T20:02:08;7.3;;;2.6;;
53674;SDS011;39574;50.534;8.500;2023-12-22T20:07:07;7.5;;;2.6;;
53674;SDS011;39574;50.534;8.500;2023-12-22T20:12:06;8.3;;;2.6;;
53674;SDS011;39574;50.534;8.500;2023-12-22T20:17:05;7.5;;;2.6;;
53674;SDS011;39574;50.534;8.500;2023-12-22T20:22:08;7.7;;;2.5;;
53674;SDS011;39574;50.534;8.500;2023-12-22T20:27:06;7.9;;;2.6;;
53674;SDS011;39574;50.534;8.500;2023-12-22T20:37:01;9.1;;;2.6;;
53674;SDS011;39574;50.534;8.500;2023-12-22T20:41:59;7.6;;;2.3;;
53674;SDS011;39574;50.534;8.500;2023-12-22T20:46:59;6.5;;;2.1;;
53674;SDS011;39574;50.534;8.500;2023-12-22T20:51:57;5.5;;;1.8;;
53674;SDS011;39574;50.534;8.500;2023-12-22T20:56:56;5.3;;;1.8;;
53674;SDS011;39574;50.534;8.500;2023-12-22T21:01:56;5.6;;;2.0;;
53674;SDS011;39574;50.534;8.500;2023-12-22T21:06:54;5.6;;;2.1;;
53674;SDS011;39574;50.534;8.500;2023-12-22T21:11:54;7.3;;;2.3;;
53674;SDS011;39574;50.534;8.500;2023-12-22T21:16:53;7.9;;;2.4;;
53674;SDS011;39574;50.534;8.500;2023-12-22T21:21:51;7.6;;;2.2;;
53674;SDS011;39574;50.534;8.500;2023-12-22T21:26:50;6.5;;;2.0;;
53674;SDS011;39574;50.534;8.500;2023-12-22T21:31:49;5.3;;;2.0;;
53674;SDS011;39574;50.534;8.500;2023-12-22T21:36:48;5.1;;;1.8;;
53674;SDS011;39574;50.534;8.500;2023-12-22T21:41:48;5.5;;;1.9;;
53674;SDS011;39574;50.534;8.500;2023-12-22T21:46:46;6.1;;;1.9;;
53674;SDS011;39574;50.534;8.500;2023-12-22T21:51:45;5.5;;;1.8;;
53674;SDS011;39574;50.534;8.500;2023-12-22T22:01:43;5.8;;;1.9;;
53674;SDS011;39574;50.534;8.500;2023-12-22T22:06:41;6.0;;;2.1;;
53674;SDS011;39574;50.534;8.500;2023-12-22T22:11:40;6.2;;;2.1;;
53674;SDS011;39574;50.534;8.500;2023-12-22T22:16:39;6.8;;;2.2;;
53674;SDS011;39574;50.534;8.500;2023-12-22T22:21:39;7.2;;;2.2;;
53674;SDS011;39574;50.534;8.500;2023-12-22T22:26:38;7.8;;;2.3;;
53674;SDS011;39574;50.534;8.500;2023-12-22T22:31:38;6.9;;;2.0;;
53674;SDS011;39574;50.534;8.500;2023-12-22T22:36:36;6.1;;;1.7;;
53674;SDS011;39574;50.534;8.500;2023-12-22T22:41:34;5.2;;;1.5;;
53674;SDS011;39574;50.534;8.500;2023-12-22T22:46:33;4.5;;;1.3;;
53674;SDS011;39574;50.534;8.500;2023-12-22T22:51:32;4.0;;;1.2;;
53674;SDS011;39574;50.534;8.500;2023-12-22T22:56:30;3.9;;;1.2;;
53674;SDS011;39574;50.534;8.500;2023-12-22T23:01:30;3.8;;;1.2;;
53674;SDS011;39574;50.534;8.500;2023-12-22T23:06:28;3.4;;;1.2;;
53674;SDS011;39574;50.534;8.500;2023-12-22T23:11:28;3.5;;;1.2;;
53674;SDS011;39574;50.534;8.500;2023-12-22T23:16:27;3.6;;;1.3;;
53674;SDS011;39574;50.534;8.500;2023-12-22T23:21:25;3.6;;;1.4;;
53674;SDS011;39574;50.534;8.500;2023-12-22T23:26:24;3.9;;;1.5;;
53674;SDS011;39574;50.534;8.500;2023-12-22T23:31:24;3.6;;;1.4;;
53674;SDS011;39574;50.534;8.500;2023-12-22T23:36:22;4.5;;;1.4;;
53674;SDS011;39574;50.534;8.500;2023-12-22T23:41:21;4.7;;;1.4;;
53674;SDS011;39574;50.534;8.500;2023-12-22T23:46:20;4.5;;;1.4;;
53674;SDS011;39574;50.534;8.500;2023-12-22T23:51:19;4.4;;;1.4;;
53674;SDS011;39574;50.534;8.500;2023-12-22T23:56:18;4.6;;;1.4;;
